sensor_id;sensor_type;location;lat;lon;timestamp;temperature;humidity
68177;DHT22;56478;50.982;7.032;2023-05-07T00:00:11;16.05;84.56
68177;DHT22;56478;50.982;7.032;2023-05-07T00:02:36;16.03;84.69
68177;DHT22;56478;50.982;7.032;2023-05-07T00:05:03;16.05;84.89
68177;DHT22;56478;50.982;7.032;2023-05-07T00:07:28;16.06;85.04
68177;DHT22;56478;50.982;7.032;2023-05-07T00:09:54;16.03;84.90
68177;DHT22;56478;50.982;7.032;2023-05-07T00:12:19;16.05;85.19
68177;DHT22;56478;50.982;7.032;2023-05-07T00:14:45;16.03;85.17
68177;DHT22;56478;50.982;7.032;2023-05-07T00:17:10;15.99;84.90
68177;DHT22;56478;50.982;7.032;2023-05-07T00:19:36;15.95;84.87
68177;DHT22;56478;50.982;7.032;2023-05-07T00:22:01;15.89;85.49
68177;DHT22;56478;50.982;7.032;2023-05-07T00:24:27;15.89;85.53
68177;DHT22;56478;50.982;7.032;2023-05-07T00:26:52;15.85;85.28
68177;DHT22;56478;50.982;7.032;2023-05-07T00:29:17;15.88;85.27
68177;DHT22;56478;50.982;7.032;2023-05-07T00:31:43;15.91;85.16
68177;DHT22;56478;50.982;7.032;2023-05-07T00:34:08;15.88;85.40
68177;DHT22;56478;50.982;7.032;2023-05-07T00:36:34;15.92;85.14
68177;DHT22;56478;50.982;7.032;2023-05-07T00:38:59;15.93;84.56
68177;DHT22;56478;50.982;7.032;2023-05-07T00:41:25;15.91;84.43
68177;DHT22;56478;50.982;7.032;2023-05-07T00:43:51;15.85;84.50
68177;DHT22;56478;50.982;7.032;2023-05-07T00:46:20;15.85;84.75
68177;DHT22;56478;50.982;7.032;2023-05-07T00:48:46;15.78;84.69
68177;DHT22;56478;50.982;7.032;2023-05-07T00:51:11;15.82;84.01
68177;DHT22;56478;50.982;7.032;2023-05-07T00:53:37;15.72;84.87
68177;DHT22;56478;50.982;7.032;2023-05-07T00:56:03;15.78;84.29
68177;DHT22;56478;50.982;7.032;2023-05-07T00:58:28;15.74;84.50
68177;DHT22;56478;50.982;7.032;2023-05-07T01:00:54;15.69;84.91
68177;DHT22;56478;50.982;7.032;2023-05-07T01:03:20;15.69;84.51
68177;DHT22;56478;50.982;7.032;2023-05-07T01:05:45;15.68;85.06
68177;DHT22;56478;50.982;7.032;2023-05-07T01:08:11;15.68;84.99
68177;DHT22;56478;50.982;7.032;2023-05-07T01:10:37;15.69;84.91
68177;DHT22;56478;50.982;7.032;2023-05-07T01:13:03;15.71;84.61
68177;DHT22;56478;50.982;7.032;2023-05-07T01:15:28;15.72;84.53
68177;DHT22;56478;50.982;7.032;2023-05-07T01:17:54;15.75;84.52
68177;DHT22;56478;50.982;7.032;2023-05-07T01:20:21;15.78;84.65
68177;DHT22;56478;50.982;7.032;2023-05-07T01:22:47;15.71;84.32
68177;DHT22;56478;50.982;7.032;2023-05-07T01:25:13;15.72;84.79
68177;DHT22;56478;50.982;7.032;2023-05-07T01:27:41;15.74;84.68
68177;DHT22;56478;50.982;7.032;2023-05-07T01:30:06;15.74;84.68
68177;DHT22;56478;50.982;7.032;2023-05-07T01:32:33;15.77;84.45
68177;DHT22;56478;50.982;7.032;2023-05-07T01:35:00;15.78;84.25
68177;DHT22;56478;50.982;7.032;2023-05-07T01:37:26;15.79;84.23
68177;DHT22;56478;50.982;7.032;2023-05-07T01:39:52;15.77;84.14
68177;DHT22;56478;50.982;7.032;2023-05-07T01:42:17;15.77;83.85
68177;DHT22;56478;50.982;7.032;2023-05-07T01:44:43;15.79;84.24
68177;DHT22;56478;50.982;7.032;2023-05-07T01:47:08;15.77;83.51
68177;DHT22;56478;50.982;7.032;2023-05-07T01:49:34;15.72;84.13
68177;DHT22;56478;50.982;7.032;2023-05-07T01:51:59;15.68;84.58
68177;DHT22;56478;50.982;7.032;2023-05-07T01:54:26;15.68;83.65
68177;DHT22;56478;50.982;7.032;2023-05-07T01:56:55;15.72;83.14
68177;DHT22;56478;50.982;7.032;2023-05-07T01:59:21;15.69;83.85
68177;DHT22;56478;50.982;7.032;2023-05-07T02:01:46;15.65;84.00
68177;DHT22;56478;50.982;7.032;2023-05-07T02:04:12;15.64;84.00
68177;DHT22;56478;50.982;7.032;2023-05-07T02:06:38;15.65;83.71
68177;DHT22;56478;50.982;7.032;2023-05-07T02:09:03;15.64;83.32
68177;DHT22;56478;50.982;7.032;2023-05-07T02:11:28;15.64;84.04
68177;DHT22;56478;50.982;7.032;2023-05-07T02:13:53;15.59;84.06
68177;DHT22;56478;50.982;7.032;2023-05-07T02:16:19;15.58;84.44
68177;DHT22;56478;50.982;7.032;2023-05-07T02:18:45;15.48;84.23
68177;DHT22;56478;50.982;7.032;2023-05-07T02:21:10;15.43;84.73
68177;DHT22;56478;50.982;7.032;2023-05-07T02:23:35;15.40;84.51
68177;DHT22;56478;50.982;7.032;2023-05-07T02:26:01;15.33;84.50
68177;DHT22;56478;50.982;7.032;2023-05-07T02:28:26;15.24;84.52
68177;DHT22;56478;50.982;7.032;2023-05-07T02:30:52;15.22;84.96
68177;DHT22;56478;50.982;7.032;2023-05-07T02:33:17;15.18;85.07
68177;DHT22;56478;50.982;7.032;2023-05-07T02:35:43;15.13;85.46
68177;DHT22;56478;50.982;7.032;2023-05-07T02:38:08;15.09;85.54
68177;DHT22;56478;50.982;7.032;2023-05-07T02:40:36;15.06;85.75
68177;DHT22;56478;50.982;7.032;2023-05-07T02:43:03;15.00;85.78
68177;DHT22;56478;50.982;7.032;2023-05-07T02:45:29;15.05;85.82
68177;DHT22;56478;50.982;7.032;2023-05-07T02:47:54;15.05;85.71
68177;DHT22;56478;50.982;7.032;2023-05-07T02:50:20;15.02;85.79
68177;DHT22;56478;50.982;7.032;2023-05-07T02:52:45;15.03;85.82
68177;DHT22;56478;50.982;7.032;2023-05-07T02:55:11;15.02;86.25
68177;DHT22;56478;50.982;7.032;2023-05-07T02:57:37;15.03;86.08
68177;DHT22;56478;50.982;7.032;2023-05-07T03:00:12;15.05;86.01
68177;DHT22;56478;50.982;7.032;2023-05-07T03:02:37;15.05;86.00
68177;DHT22;56478;50.982;7.032;2023-05-07T03:05:03;15.03;86.07
68177;DHT22;56478;50.982;7.032;2023-05-07T03:07:28;15.06;85.83
68177;DHT22;56478;50.982;7.032;2023-05-07T03:09:54;15.07;85.94
68177;DHT22;56478;50.982;7.032;2023-05-07T03:12:19;15.06;86.00
68177;DHT22;56478;50.982;7.032;2023-05-07T03:14:45;15.07;86.07
68177;DHT22;56478;50.982;7.032;2023-05-07T03:17:10;15.06;85.89
68177;DHT22;56478;50.982;7.032;2023-05-07T03:19:36;15.03;86.20
68177;DHT22;56478;50.982;7.032;2023-05-07T03:22:01;15.03;85.81
68177;DHT22;56478;50.982;7.032;2023-05-07T03:24:26;14.99;85.68
68177;DHT22;56478;50.982;7.032;2023-05-07T03:26:52;14.99;85.95
68177;DHT22;56478;50.982;7.032;2023-05-07T03:29:17;15.00;85.90
68177;DHT22;56478;50.982;7.032;2023-05-07T03:31:42;14.99;86.03
68177;DHT22;56478;50.982;7.032;2023-05-07T03:34:08;14.96;86.06
68177;DHT22;56478;50.982;7.032;2023-05-07T03:36:33;14.98;86.01
68177;DHT22;56478;50.982;7.032;2023-05-07T03:38:58;14.89;85.94
68177;DHT22;56478;50.982;7.032;2023-05-07T03:41:23;14.85;86.14
68177;DHT22;56478;50.982;7.032;2023-05-07T03:43:49;14.84;86.03
68177;DHT22;56478;50.982;7.032;2023-05-07T03:46:14;14.75;86.16
68177;DHT22;56478;50.982;7.032;2023-05-07T03:48:40;14.77;86.42
68177;DHT22;56478;50.982;7.032;2023-05-07T03:51:05;14.69;86.36
68177;DHT22;56478;50.982;7.032;2023-05-07T03:53:30;14.68;86.42
68177;DHT22;56478;50.982;7.032;2023-05-07T03:55:56;14.65;86.30
68177;DHT22;56478;50.982;7.032;2023-05-07T03:58:21;14.65;86.24
68177;DHT22;56478;50.982;7.032;2023-05-07T04:00:46;14.65;86.21
68177;DHT22;56478;50.982;7.032;2023-05-07T04:03:12;14.61;86.45
68177;DHT22;56478;50.982;7.032;2023-05-07T04:05:37;14.57;86.74
68177;DHT22;56478;50.982;7.032;2023-05-07T04:08:02;14.60;86.61
68177;DHT22;56478;50.982;7.032;2023-05-07T04:10:29;14.60;86.31
68177;DHT22;56478;50.982;7.032;2023-05-07T04:12:54;14.61;86.39
68177;DHT22;56478;50.982;7.032;2023-05-07T04:15:19;14.63;86.35
68177;DHT22;56478;50.982;7.032;2023-05-07T04:17:45;14.61;86.38
68177;DHT22;56478;50.982;7.032;2023-05-07T04:20:14;14.63;86.41
68177;DHT22;56478;50.982;7.032;2023-05-07T04:22:39;14.67;86.76
68177;DHT22;56478;50.982;7.032;2023-05-07T04:25:05;14.67;86.44
68177;DHT22;56478;50.982;7.032;2023-05-07T04:27:30;14.75;86.48
68177;DHT22;56478;50.982;7.032;2023-05-07T04:29:55;14.75;86.02
68177;DHT22;56478;50.982;7.032;2023-05-07T04:32:21;14.78;85.59
68177;DHT22;56478;50.982;7.032;2023-05-07T04:34:47;14.81;85.54
68177;DHT22;56478;50.982;7.032;2023-05-07T04:37:12;14.86;85.88
68177;DHT22;56478;50.982;7.032;2023-05-07T04:39:37;14.96;85.75
68177;DHT22;56478;50.982;7.032;2023-05-07T04:42:03;14.98;85.45
68177;DHT22;56478;50.982;7.032;2023-05-07T04:44:28;14.99;85.27
68177;DHT22;56478;50.982;7.032;2023-05-07T04:46:56;14.98;85.38
68177;DHT22;56478;50.982;7.032;2023-05-07T04:49:21;15.02;85.31
68177;DHT22;56478;50.982;7.032;2023-05-07T04:51:46;15.07;85.63
68177;DHT22;56478;50.982;7.032;2023-05-07T04:54:12;15.13;85.49
68177;DHT22;56478;50.982;7.032;2023-05-07T04:56:37;15.18;84.94
68177;DHT22;56478;50.982;7.032;2023-05-07T04:59:02;15.24;84.57
68177;DHT22;56478;50.982;7.032;2023-05-07T05:01:28;15.26;84.50
68177;DHT22;56478;50.982;7.032;2023-05-07T05:03:53;15.31;84.41
68177;DHT22;56478;50.982;7.032;2023-05-07T05:06:18;15.36;84.27
68177;DHT22;56478;50.982;7.032;2023-05-07T05:08:44;15.37;85.23
68177;DHT22;56478;50.982;7.032;2023-05-07T05:11:09;15.44;84.83
68177;DHT22;56478;50.982;7.032;2023-05-07T05:13:35;15.46;84.49
68177;DHT22;56478;50.982;7.032;2023-05-07T05:16:00;15.51;84.32
68177;DHT22;56478;50.982;7.032;2023-05-07T05:18:25;15.59;84.53
68177;DHT22;56478;50.982;7.032;2023-05-07T05:20:52;15.61;83.91
68177;DHT22;56478;50.982;7.032;2023-05-07T05:23:17;15.66;84.00
68177;DHT22;56478;50.982;7.032;2023-05-07T05:25:43;15.72;83.73
68177;DHT22;56478;50.982;7.032;2023-05-07T05:28:08;15.79;84.15
68177;DHT22;56478;50.982;7.032;2023-05-07T05:30:33;15.82;83.56
68177;DHT22;56478;50.982;7.032;2023-05-07T05:32:59;15.88;82.75
68177;DHT22;56478;50.982;7.032;2023-05-07T05:35:25;15.95;82.84
68177;DHT22;56478;50.982;7.032;2023-05-07T05:37:50;16.09;82.34
68177;DHT22;56478;50.982;7.032;2023-05-07T05:40:15;16.24;80.79
68177;DHT22;56478;50.982;7.032;2023-05-07T05:42:41;16.26;80.99
68177;DHT22;56478;50.982;7.032;2023-05-07T05:45:06;16.30;81.33
68177;DHT22;56478;50.982;7.032;2023-05-07T05:47:32;16.37;80.32
68177;DHT22;56478;50.982;7.032;2023-05-07T05:49:57;16.27;81.90
68177;DHT22;56478;50.982;7.032;2023-05-07T05:52:23;16.28;81.46
68177;DHT22;56478;50.982;7.032;2023-05-07T05:54:51;16.31;81.71
68177;DHT22;56478;50.982;7.032;2023-05-07T05:57:16;16.28;81.95
68177;DHT22;56478;50.982;7.032;2023-05-07T05:59:42;16.33;82.18
68177;DHT22;56478;50.982;7.032;2023-05-07T06:02:07;16.37;82.98
68177;DHT22;56478;50.982;7.032;2023-05-07T06:04:33;16.45;83.67
68177;DHT22;56478;50.982;7.032;2023-05-07T06:06:58;16.55;84.00
68177;DHT22;56478;50.982;7.032;2023-05-07T06:09:24;16.58;81.84
68177;DHT22;56478;50.982;7.032;2023-05-07T06:11:49;16.65;81.07
68177;DHT22;56478;50.982;7.032;2023-05-07T06:14:14;16.68;80.82
68177;DHT22;56478;50.982;7.032;2023-05-07T06:16:43;16.71;79.93
68177;DHT22;56478;50.982;7.032;2023-05-07T06:19:09;16.75;80.37
68177;DHT22;56478;50.982;7.032;2023-05-07T06:21:34;16.85;82.50
68177;DHT22;56478;50.982;7.032;2023-05-07T06:23:59;16.97;82.29
68177;DHT22;56478;50.982;7.032;2023-05-07T06:26:25;17.05;80.22
68177;DHT22;56478;50.982;7.032;2023-05-07T06:28:50;17.12;79.81
68177;DHT22;56478;50.982;7.032;2023-05-07T06:31:16;17.28;82.29
68177;DHT22;56478;50.982;7.032;2023-05-07T06:33:42;17.41;80.04
68177;DHT22;56478;50.982;7.032;2023-05-07T06:36:08;17.57;78.86
68177;DHT22;56478;50.982;7.032;2023-05-07T06:38:33;17.68;77.92
68177;DHT22;56478;50.982;7.032;2023-05-07T06:40:58;17.85;77.24
68177;DHT22;56478;50.982;7.032;2023-05-07T06:43:24;17.94;77.60
68177;DHT22;56478;50.982;7.032;2023-05-07T06:45:49;18.02;76.94
68177;DHT22;56478;50.982;7.032;2023-05-07T06:48:15;18.34;73.87
68177;DHT22;56478;50.982;7.032;2023-05-07T06:50:41;18.95;72.31
68177;DHT22;56478;50.982;7.032;2023-05-07T06:53:06;19.41;70.68
68177;DHT22;56478;50.982;7.032;2023-05-07T06:55:32;19.65;70.15
68177;DHT22;56478;50.982;7.032;2023-05-07T06:57:57;20.45;70.38
68177;DHT22;56478;50.982;7.032;2023-05-07T07:00:26;21.49;67.35
68177;DHT22;56478;50.982;7.032;2023-05-07T07:02:51;21.80;61.56
68177;DHT22;56478;50.982;7.032;2023-05-07T07:05:17;22.62;59.70
68177;DHT22;56478;50.982;7.032;2023-05-07T07:07:42;23.87;54.65
68177;DHT22;56478;50.982;7.032;2023-05-07T07:10:08;23.51;54.39
68177;DHT22;56478;50.982;7.032;2023-05-07T07:12:36;23.53;53.63
68177;DHT22;56478;50.982;7.032;2023-05-07T07:15:01;23.77;52.83
68177;DHT22;56478;50.982;7.032;2023-05-07T07:17:27;24.26;52.43
68177;DHT22;56478;50.982;7.032;2023-05-07T07:19:53;25.36;49.11
68177;DHT22;56478;50.982;7.032;2023-05-07T07:22:18;26.01;46.80
68177;DHT22;56478;50.982;7.032;2023-05-07T07:24:44;26.26;48.50
68177;DHT22;56478;50.982;7.032;2023-05-07T07:27:09;25.62;50.28
68177;DHT22;56478;50.982;7.032;2023-05-07T07:29:35;26.22;47.65
68177;DHT22;56478;50.982;7.032;2023-05-07T07:32:00;27.26;44.88
68177;DHT22;56478;50.982;7.032;2023-05-07T07:34:25;27.69;43.12
68177;DHT22;56478;50.982;7.032;2023-05-07T07:36:51;27.64;43.23
68177;DHT22;56478;50.982;7.032;2023-05-07T07:39:16;28.32;41.60
68177;DHT22;56478;50.982;7.032;2023-05-07T07:41:41;28.04;42.79
68177;DHT22;56478;50.982;7.032;2023-05-07T07:44:07;28.95;40.81
68177;DHT22;56478;50.982;7.032;2023-05-07T07:46:33;27.83;44.16
68177;DHT22;56478;50.982;7.032;2023-05-07T07:48:59;28.04;42.81
68177;DHT22;56478;50.982;7.032;2023-05-07T07:51:25;27.63;46.82
68177;DHT22;56478;50.982;7.032;2023-05-07T07:53:50;28.43;43.83
68177;DHT22;56478;50.982;7.032;2023-05-07T07:56:15;29.26;41.61
68177;DHT22;56478;50.982;7.032;2023-05-07T07:58:41;28.59;41.75
68177;DHT22;56478;50.982;7.032;2023-05-07T08:01:06;27.39;45.31
68177;DHT22;56478;50.982;7.032;2023-05-07T08:03:32;27.69;44.24
68177;DHT22;56478;50.982;7.032;2023-05-07T08:05:58;28.33;42.67
68177;DHT22;56478;50.982;7.032;2023-05-07T08:08:23;27.97;44.55
68177;DHT22;56478;50.982;7.032;2023-05-07T08:10:48;27.36;44.69
68177;DHT22;56478;50.982;7.032;2023-05-07T08:13:15;27.74;42.80
68177;DHT22;56478;50.982;7.032;2023-05-07T08:15:41;28.70;40.68
68177;DHT22;56478;50.982;7.032;2023-05-07T08:18:06;28.47;42.48
68177;DHT22;56478;50.982;7.032;2023-05-07T08:20:31;28.29;42.69
68177;DHT22;56478;50.982;7.032;2023-05-07T08:22:57;28.53;42.25
68177;DHT22;56478;50.982;7.032;2023-05-07T08:25:22;28.38;41.61
68177;DHT22;56478;50.982;7.032;2023-05-07T08:27:48;27.59;42.44
68177;DHT22;56478;50.982;7.032;2023-05-07T08:30:13;27.08;44.14
68177;DHT22;56478;50.982;7.032;2023-05-07T08:32:39;26.56;45.83
68177;DHT22;56478;50.982;7.032;2023-05-07T08:35:04;26.39;47.53
68177;DHT22;56478;50.982;7.032;2023-05-07T08:37:30;26.86;45.82
68177;DHT22;56478;50.982;7.032;2023-05-07T08:39:55;26.00;47.79
68177;DHT22;56478;50.982;7.032;2023-05-07T08:42:22;25.81;48.02
68177;DHT22;56478;50.982;7.032;2023-05-07T08:44:48;25.06;49.43
68177;DHT22;56478;50.982;7.032;2023-05-07T08:47:18;24.87;51.78
68177;DHT22;56478;50.982;7.032;2023-05-07T08:49:44;24.69;50.61
68177;DHT22;56478;50.982;7.032;2023-05-07T08:52:11;24.60;51.58
68177;DHT22;56478;50.982;7.032;2023-05-07T08:54:36;24.72;52.91
68177;DHT22;56478;50.982;7.032;2023-05-07T08:57:02;24.39;51.96
68177;DHT22;56478;50.982;7.032;2023-05-07T08:59:27;25.53;49.68
68177;DHT22;56478;50.982;7.032;2023-05-07T09:01:53;26.61;47.31
68177;DHT22;56478;50.982;7.032;2023-05-07T09:04:18;26.39;47.74
68177;DHT22;56478;50.982;7.032;2023-05-07T09:06:43;26.55;46.81
68177;DHT22;56478;50.982;7.032;2023-05-07T09:09:09;26.97;45.66
68177;DHT22;56478;50.982;7.032;2023-05-07T09:11:34;25.93;49.70
68177;DHT22;56478;50.982;7.032;2023-05-07T09:14:00;26.00;47.66
68177;DHT22;56478;50.982;7.032;2023-05-07T09:16:29;25.91;50.21
68177;DHT22;56478;50.982;7.032;2023-05-07T09:18:56;26.35;47.08
68177;DHT22;56478;50.982;7.032;2023-05-07T09:21:22;26.53;45.88
68177;DHT22;56478;50.982;7.032;2023-05-07T09:23:49;26.39;47.13
68177;DHT22;56478;50.982;7.032;2023-05-07T09:26:15;26.57;46.94
68177;DHT22;56478;50.982;7.032;2023-05-07T09:28:41;26.49;47.33
68177;DHT22;56478;50.982;7.032;2023-05-07T09:31:07;27.24;45.28
68177;DHT22;56478;50.982;7.032;2023-05-07T09:33:32;28.19;44.83
68177;DHT22;56478;50.982;7.032;2023-05-07T09:35:58;29.52;40.65
68177;DHT22;56478;50.982;7.032;2023-05-07T09:38:23;30.87;38.70
68177;DHT22;56478;50.982;7.032;2023-05-07T09:40:54;30.14;37.87
68177;DHT22;56478;50.982;7.032;2023-05-07T09:43:26;28.75;40.57
68177;DHT22;56478;50.982;7.032;2023-05-07T09:45:51;27.90;42.53
68177;DHT22;56478;50.982;7.032;2023-05-07T09:48:17;27.25;45.52
68177;DHT22;56478;50.982;7.032;2023-05-07T09:50:49;27.04;44.44
68177;DHT22;56478;50.982;7.032;2023-05-07T09:53:15;26.83;44.58
68177;DHT22;56478;50.982;7.032;2023-05-07T09:55:42;27.05;44.38
68177;DHT22;56478;50.982;7.032;2023-05-07T09:58:08;27.78;43.65
68177;DHT22;56478;50.982;7.032;2023-05-07T10:00:34;28.15;42.63
68177;DHT22;56478;50.982;7.032;2023-05-07T10:03:00;29.35;40.73
68177;DHT22;56478;50.982;7.032;2023-05-07T10:05:26;30.53;38.23
68177;DHT22;56478;50.982;7.032;2023-05-07T10:07:52;31.67;36.40
68177;DHT22;56478;50.982;7.032;2023-05-07T10:10:18;31.99;35.73
68177;DHT22;56478;50.982;7.032;2023-05-07T10:12:43;32.70;33.88
68177;DHT22;56478;50.982;7.032;2023-05-07T10:15:09;32.04;34.22
68177;DHT22;56478;50.982;7.032;2023-05-07T10:17:36;32.21;34.22
68177;DHT22;56478;50.982;7.032;2023-05-07T10:20:01;30.63;37.45
68177;DHT22;56478;50.982;7.032;2023-05-07T10:22:27;29.73;39.00
68177;DHT22;56478;50.982;7.032;2023-05-07T10:24:53;29.29;40.02
68177;DHT22;56478;50.982;7.032;2023-05-07T10:27:21;29.19;40.20
68177;DHT22;56478;50.982;7.032;2023-05-07T10:35:00;28.86;39.73
68177;DHT22;56478;50.982;7.032;2023-05-07T10:37:25;28.90;38.81
68177;DHT22;56478;50.982;7.032;2023-05-07T10:39:51;29.01;36.60
68177;DHT22;56478;50.982;7.032;2023-05-07T10:42:17;28.49;38.74
68177;DHT22;56478;50.982;7.032;2023-05-07T10:44:42;28.15;40.41
68177;DHT22;56478;50.982;7.032;2023-05-07T10:47:11;28.01;41.93
68177;DHT22;56478;50.982;7.032;2023-05-07T10:52:15;29.69;39.86
68177;DHT22;56478;50.982;7.032;2023-05-07T10:54:41;29.70;39.05
68177;DHT22;56478;50.982;7.032;2023-05-07T10:59:51;29.53;38.08
68177;DHT22;56478;50.982;7.032;2023-05-07T11:02:17;30.02;36.13
68177;DHT22;56478;50.982;7.032;2023-05-07T11:04:42;29.33;40.32
68177;DHT22;56478;50.982;7.032;2023-05-07T11:15:11;28.15;40.93
68177;DHT22;56478;50.982;7.032;2023-05-07T11:17:56;28.86;39.54
68177;DHT22;56478;50.982;7.032;2023-05-07T11:20:43;29.12;36.50
68177;DHT22;56478;50.982;7.032;2023-05-07T11:23:10;28.25;38.41
68177;DHT22;56478;50.982;7.032;2023-05-07T11:25:58;28.45;37.18
68177;DHT22;56478;50.982;7.032;2023-05-07T11:28:23;28.04;40.63
68177;DHT22;56478;50.982;7.032;2023-05-07T11:30:49;27.95;40.27
68177;DHT22;56478;50.982;7.032;2023-05-07T11:33:16;27.60;41.44
68177;DHT22;56478;50.982;7.032;2023-05-07T11:35:42;27.24;41.95
68177;DHT22;56478;50.982;7.032;2023-05-07T11:38:07;27.36;41.03
68177;DHT22;56478;50.982;7.032;2023-05-07T11:40:33;27.66;38.50
68177;DHT22;56478;50.982;7.032;2023-05-07T11:42:58;27.41;40.31
68177;DHT22;56478;50.982;7.032;2023-05-07T11:45:24;26.98;37.78
68177;DHT22;56478;50.982;7.032;2023-05-07T11:47:53;26.48;43.73
68177;DHT22;56478;50.982;7.032;2023-05-07T11:50:19;26.28;46.68
68177;DHT22;56478;50.982;7.032;2023-05-07T11:52:51;26.00;48.08
68177;DHT22;56478;50.982;7.032;2023-05-07T11:55:18;26.08;46.23
68177;DHT22;56478;50.982;7.032;2023-05-07T11:57:43;26.11;48.09
68177;DHT22;56478;50.982;7.032;2023-05-07T12:00:09;25.97;44.39
68177;DHT22;56478;50.982;7.032;2023-05-07T12:02:35;26.05;42.43
68177;DHT22;56478;50.982;7.032;2023-05-07T12:05:01;25.88;43.05
68177;DHT22;56478;50.982;7.032;2023-05-07T12:07:27;25.86;42.40
68177;DHT22;56478;50.982;7.032;2023-05-07T12:09:53;25.81;45.65
68177;DHT22;56478;50.982;7.032;2023-05-07T12:12:18;25.56;43.67
68177;DHT22;56478;50.982;7.032;2023-05-07T12:14:44;25.34;46.37
68177;DHT22;56478;50.982;7.032;2023-05-07T12:17:10;25.45;44.41
68177;DHT22;56478;50.982;7.032;2023-05-07T12:19:36;25.46;47.28
68177;DHT22;56478;50.982;7.032;2023-05-07T12:22:04;25.21;51.70
68177;DHT22;56478;50.982;7.032;2023-05-07T12:27:14;25.22;46.95
68177;DHT22;56478;50.982;7.032;2023-05-07T12:29:39;25.10;51.79
68177;DHT22;56478;50.982;7.032;2023-05-07T12:32:12;25.11;45.53
68177;DHT22;56478;50.982;7.032;2023-05-07T12:34:38;25.26;45.56
68177;DHT22;56478;50.982;7.032;2023-05-07T12:37:04;25.28;44.43
68177;DHT22;56478;50.982;7.032;2023-05-07T12:39:29;25.21;47.56
68177;DHT22;56478;50.982;7.032;2023-05-07T12:41:56;25.01;45.82
68177;DHT22;56478;50.982;7.032;2023-05-07T12:44:23;24.95;49.40
68177;DHT22;56478;50.982;7.032;2023-05-07T12:46:49;25.00;46.64
68177;DHT22;56478;50.982;7.032;2023-05-07T12:49:15;25.14;47.08
68177;DHT22;56478;50.982;7.032;2023-05-07T12:51:40;25.22;51.58
68177;DHT22;56478;50.982;7.032;2023-05-07T12:54:06;25.03;47.61
68177;DHT22;56478;50.982;7.032;2023-05-07T12:56:31;25.00;50.63
68177;DHT22;56478;50.982;7.032;2023-05-07T12:58:57;25.17;45.78
68177;DHT22;56478;50.982;7.032;2023-05-07T13:01:28;25.10;46.84
68177;DHT22;56478;50.982;7.032;2023-05-07T13:03:53;25.03;47.19
68177;DHT22;56478;50.982;7.032;2023-05-07T13:06:19;24.69;46.73
68177;DHT22;56478;50.982;7.032;2023-05-07T13:08:44;24.53;53.11
68177;DHT22;56478;50.982;7.032;2023-05-07T13:11:10;24.45;55.17
68177;DHT22;56478;50.982;7.032;2023-05-07T13:13:36;24.36;56.17
68177;DHT22;56478;50.982;7.032;2023-05-07T13:16:02;24.21;51.19
68177;DHT22;56478;50.982;7.032;2023-05-07T13:18:29;24.40;55.06
68177;DHT22;56478;50.982;7.032;2023-05-07T13:20:54;24.39;53.11
68177;DHT22;56478;50.982;7.032;2023-05-07T13:23:20;24.35;57.91
68177;DHT22;56478;50.982;7.032;2023-05-07T13:25:45;24.35;58.20
68177;DHT22;56478;50.982;7.032;2023-05-07T13:28:11;24.53;56.86
68177;DHT22;56478;50.982;7.032;2023-05-07T13:30:37;24.79;59.11
68177;DHT22;56478;50.982;7.032;2023-05-07T13:33:02;24.83;60.91
68177;DHT22;56478;50.982;7.032;2023-05-07T13:35:27;24.97;56.94
68177;DHT22;56478;50.982;7.032;2023-05-07T13:37:53;24.98;54.98
68177;DHT22;56478;50.982;7.032;2023-05-07T13:40:19;24.91;55.36
68177;DHT22;56478;50.982;7.032;2023-05-07T13:42:45;24.91;49.82
68177;DHT22;56478;50.982;7.032;2023-05-07T13:45:10;24.72;50.71
68177;DHT22;56478;50.982;7.032;2023-05-07T13:47:35;24.83;51.74
68177;DHT22;56478;50.982;7.032;2023-05-07T13:50:01;24.83;51.41
68177;DHT22;56478;50.982;7.032;2023-05-07T13:52:26;24.39;51.74
68177;DHT22;56478;50.982;7.032;2023-05-07T13:54:52;24.28;54.26
68177;DHT22;56478;50.982;7.032;2023-05-07T13:57:17;24.22;56.62
68177;DHT22;56478;50.982;7.032;2023-05-07T13:59:43;23.98;52.89
68177;DHT22;56478;50.982;7.032;2023-05-07T14:02:08;23.74;54.06
68177;DHT22;56478;50.982;7.032;2023-05-07T14:04:34;23.62;56.08
68177;DHT22;56478;50.982;7.032;2023-05-07T14:06:59;23.35;56.61
68177;DHT22;56478;50.982;7.032;2023-05-07T14:09:25;23.34;55.80
68177;DHT22;56478;50.982;7.032;2023-05-07T14:11:50;23.17;54.20
68177;DHT22;56478;50.982;7.032;2023-05-07T14:14:17;23.19;52.85
68177;DHT22;56478;50.982;7.032;2023-05-07T14:16:42;23.01;59.58
68177;DHT22;56478;50.982;7.032;2023-05-07T14:19:07;22.77;64.15
68177;DHT22;56478;50.982;7.032;2023-05-07T14:21:33;22.53;66.43
68177;DHT22;56478;50.982;7.032;2023-05-07T14:23:58;22.53;66.50
68177;DHT22;56478;50.982;7.032;2023-05-07T14:26:25;22.37;68.39
68177;DHT22;56478;50.982;7.032;2023-05-07T14:28:52;22.15;66.42
68177;DHT22;56478;50.982;7.032;2023-05-07T14:31:17;21.87;72.13
68177;DHT22;56478;50.982;7.032;2023-05-07T14:33:43;21.70;72.21
68177;DHT22;56478;50.982;7.032;2023-05-07T14:36:08;21.82;70.11
68177;DHT22;56478;50.982;7.032;2023-05-07T14:38:33;21.63;72.33
68177;DHT22;56478;50.982;7.032;2023-05-07T14:40:59;21.69;70.90
68177;DHT22;56478;50.982;7.032;2023-05-07T14:43:24;21.59;72.33
68177;DHT22;56478;50.982;7.032;2023-05-07T14:45:50;21.31;73.08
68177;DHT22;56478;50.982;7.032;2023-05-07T14:48:15;21.38;75.18
68177;DHT22;56478;50.982;7.032;2023-05-07T14:50:41;21.42;71.16
68177;DHT22;56478;50.982;7.032;2023-05-07T14:53:06;21.27;73.27
68177;DHT22;56478;50.982;7.032;2023-05-07T14:55:32;21.23;72.42
68177;DHT22;56478;50.982;7.032;2023-05-07T14:57:57;21.53;69.03
68177;DHT22;56478;50.982;7.032;2023-05-07T15:00:22;21.76;69.83
68177;DHT22;56478;50.982;7.032;2023-05-07T15:02:48;21.80;69.72
68177;DHT22;56478;50.982;7.032;2023-05-07T15:05:13;22.15;68.49
68177;DHT22;56478;50.982;7.032;2023-05-07T15:07:39;22.27;70.05
68177;DHT22;56478;50.982;7.032;2023-05-07T15:10:05;22.22;68.90
68177;DHT22;56478;50.982;7.032;2023-05-07T15:12:30;22.38;68.15
68177;DHT22;56478;50.982;7.032;2023-05-07T15:14:56;22.44;67.95
68177;DHT22;56478;50.982;7.032;2023-05-07T15:17:21;22.42;66.98
68177;DHT22;56478;50.982;7.032;2023-05-07T15:19:46;22.46;63.96
68177;DHT22;56478;50.982;7.032;2023-05-07T15:22:12;22.20;66.23
68177;DHT22;56478;50.982;7.032;2023-05-07T15:24:37;22.10;68.63
68177;DHT22;56478;50.982;7.032;2023-05-07T15:27:03;21.90;69.69
68177;DHT22;56478;50.982;7.032;2023-05-07T15:29:28;21.72;72.66
68177;DHT22;56478;50.982;7.032;2023-05-07T15:31:53;21.55;71.42
68177;DHT22;56478;50.982;7.032;2023-05-07T15:34:20;21.52;73.39
68177;DHT22;56478;50.982;7.032;2023-05-07T15:36:45;21.59;71.56
68177;DHT22;56478;50.982;7.032;2023-05-07T15:39:11;21.60;70.30
68177;DHT22;56478;50.982;7.032;2023-05-07T15:41:36;21.51;71.03